Alsea, Oregon
Current Conditions -  °F | °C
As of 4:35 PM on Saturday 20 Dec 2014 (Local Time) from KCVO Reporting Station
Overcast Overcast  
Wind Chill: 14°   Ceiling: 4300
Heat Index: 14°   Visibility: 7mi
Dew Point: 12°   Wind: 16mph
Humidity: 88%   Direction: 190°S
Pressure: 29.75"   Gusts: NA
Location:  44.38°N, 123.6°W
Report Text: KCVO 210035Z AUTO 19014KT 7SM FEW024 BKN043 OVC075 14/12 A2975 RMK AO1 P0008
Loading
Personal Weather Stations






























Interactive Weather Map New forecast layout! Learn more

10-Day Weather Forecast

Advertisements
Track Severe Weather on mobile